sensor_id;sensor_type;location;lat;lon;timestamp;pressure;altitude;pressure_sealevel;temperature;humidity
55347;BME280;41218;55.700;38.270;2023-01-08T00:03:40;101210.44;;;-19.55;63.41
55347;BME280;41218;55.700;38.270;2023-01-08T00:08:41;101200.44;;;-19.32;62.94
55347;BME280;41218;55.700;38.270;2023-01-08T00:13:42;101200.03;;;-19.08;63.14
55347;BME280;41218;55.700;38.270;2023-01-08T00:18:43;101204.00;;;-18.84;63.02
55347;BME280;41218;55.700;38.270;2023-01-08T00:23:44;101192.84;;;-18.68;63.33
55347;BME280;41218;55.700;38.270;2023-01-08T00:28:45;101198.69;;;-18.47;62.99
55347;BME280;41218;55.700;38.270;2023-01-08T00:33:46;101200.91;;;-18.32;63.20
55347;BME280;41218;55.700;38.270;2023-01-08T00:38:46;101212.22;;;-18.22;63.53
55347;BME280;41218;55.700;38.270;2023-01-08T00:43:47;101209.53;;;-18.12;63.27
55347;BME280;41218;55.700;38.270;2023-01-08T00:48:47;101204.78;;;-18.09;63.29
55347;BME280;41218;55.700;38.270;2023-01-08T00:53:48;101204.66;;;-18.07;63.31
55347;BME280;41218;55.700;38.270;2023-01-08T00:58:48;101203.38;;;-18.03;63.58
55347;BME280;41218;55.700;38.270;2023-01-08T01:03:49;101195.81;;;-17.98;63.75
55347;BME280;41218;55.700;38.270;2023-01-08T01:08:49;101193.00;;;-17.87;63.84
55347;BME280;41218;55.700;38.270;2023-01-08T01:13:51;101197.31;;;-17.86;63.82
55347;BME280;41218;55.700;38.270;2023-01-08T01:18:52;101200.38;;;-17.72;63.84
55347;BME280;41218;55.700;38.270;2023-01-08T01:24:00;101184.38;;;-17.71;63.83
55347;BME280;41218;55.700;38.270;2023-01-08T01:29:01;101194.94;;;-17.53;63.69
55347;BME280;41218;55.700;38.270;2023-01-08T01:34:01;101197.53;;;-17.43;64.14
55347;BME280;41218;55.700;38.270;2023-01-08T01:39:02;101199.56;;;-17.37;63.75
55347;BME280;41218;55.700;38.270;2023-01-08T01:44:41;101200.91;;;-17.33;64.00
55347;BME280;41218;55.700;38.270;2023-01-08T01:49:44;101199.78;;;-17.30;64.02
55347;BME280;41218;55.700;38.270;2023-01-08T01:54:49;101203.09;;;-17.28;64.34
55347;BME280;41218;55.700;38.270;2023-01-08T01:59:52;101206.63;;;-17.20;64.35
55347;BME280;41218;55.700;38.270;2023-01-08T02:04:54;101197.94;;;-17.12;64.12
55347;BME280;41218;55.700;38.270;2023-01-08T02:10:19;101197.84;;;-17.02;64.33
55347;BME280;41218;55.700;38.270;2023-01-08T02:15:26;101203.94;;;-16.84;64.79
55347;BME280;41218;55.700;38.270;2023-01-08T02:26:28;101215.31;;;-16.57;64.33
55347;BME280;41218;55.700;38.270;2023-01-08T02:31:29;101214.16;;;-16.55;64.69
55347;BME280;41218;55.700;38.270;2023-01-08T02:36:31;101205.53;;;-16.57;64.79
55347;BME280;41218;55.700;38.270;2023-01-08T02:46:53;101197.41;;;-16.63;64.73
55347;BME280;41218;55.700;38.270;2023-01-08T02:51:56;101206.53;;;-16.58;64.48
55347;BME280;41218;55.700;38.270;2023-01-08T02:57:00;101205.25;;;-16.53;64.48
55347;BME280;41218;55.700;38.270;2023-01-08T03:02:03;101201.44;;;-16.51;64.28
55347;BME280;41218;55.700;38.270;2023-01-08T03:07:04;101212.06;;;-16.43;64.67
55347;BME280;41218;55.700;38.270;2023-01-08T03:12:14;101205.34;;;-16.37;65.27
55347;BME280;41218;55.700;38.270;2023-01-08T03:17:26;101211.47;;;-16.28;64.66
55347;BME280;41218;55.700;38.270;2023-01-08T03:22:30;101204.88;;;-16.24;65.04
55347;BME280;41218;55.700;38.270;2023-01-08T03:27:35;101208.59;;;-16.09;65.55
55347;BME280;41218;55.700;38.270;2023-01-08T03:32:39;101213.44;;;-15.96;65.15
55347;BME280;41218;55.700;38.270;2023-01-08T03:37:45;101206.69;;;-15.82;65.13
55347;BME280;41218;55.700;38.270;2023-01-08T03:42:48;101210.38;;;-15.67;65.93
55347;BME280;41218;55.700;38.270;2023-01-08T03:47:49;101213.50;;;-15.55;65.29
55347;BME280;41218;55.700;38.270;2023-01-08T03:52:49;101216.53;;;-15.42;65.36
55347;BME280;41218;55.700;38.270;2023-01-08T03:57:50;101218.22;;;-15.24;65.61
55347;BME280;41218;55.700;38.270;2023-01-08T04:02:50;101204.28;;;-15.18;65.49
55347;BME280;41218;55.700;38.270;2023-01-08T04:07:54;101206.44;;;-15.05;65.45
55347;BME280;41218;55.700;38.270;2023-01-08T04:12:55;101210.91;;;-14.98;65.70
55347;BME280;41218;55.700;38.270;2023-01-08T04:17:56;101204.28;;;-14.94;65.69
55347;BME280;41218;55.700;38.270;2023-01-08T04:22:56;101192.81;;;-14.94;66.03
55347;BME280;41218;55.700;38.270;2023-01-08T04:27:57;101196.97;;;-14.83;65.51
55347;BME280;41218;55.700;38.270;2023-01-08T04:33:00;101211.06;;;-14.75;65.36
55347;BME280;41218;55.700;38.270;2023-01-08T04:38:01;101208.91;;;-14.71;65.79
55347;BME280;41218;55.700;38.270;2023-01-08T04:43:01;101211.03;;;-14.66;66.15
55347;BME280;41218;55.700;38.270;2023-01-08T04:48:02;101204.53;;;-14.56;66.12
55347;BME280;41218;55.700;38.270;2023-01-08T04:53:02;101211.78;;;-14.49;66.13
55347;BME280;41218;55.700;38.270;2023-01-08T04:58:03;101210.31;;;-14.52;65.66
55347;BME280;41218;55.700;38.270;2023-01-08T05:03:03;101212.44;;;-14.47;66.41
55347;BME280;41218;55.700;38.270;2023-01-08T05:08:04;101214.47;;;-14.41;65.87
55347;BME280;41218;55.700;38.270;2023-01-08T05:13:04;101234.81;;;-14.34;66.43
55347;BME280;41218;55.700;38.270;2023-01-08T05:18:05;101235.16;;;-14.28;66.04
55347;BME280;41218;55.700;38.270;2023-01-08T05:23:05;101227.84;;;-14.26;65.97
55347;BME280;41218;55.700;38.270;2023-01-08T05:28:06;101231.47;;;-14.19;66.35
55347;BME280;41218;55.700;38.270;2023-01-08T05:33:06;101230.47;;;-14.18;66.46
55347;BME280;41218;55.700;38.270;2023-01-08T05:38:07;101234.44;;;-14.14;66.29
55347;BME280;41218;55.700;38.270;2023-01-08T05:43:07;101234.09;;;-14.11;66.53
55347;BME280;41218;55.700;38.270;2023-01-08T05:48:08;101227.97;;;-14.12;66.25
55347;BME280;41218;55.700;38.270;2023-01-08T05:53:08;101229.63;;;-14.10;66.59
55347;BME280;41218;55.700;38.270;2023-01-08T05:58:09;101224.13;;;-14.09;66.37
55347;BME280;41218;55.700;38.270;2023-01-08T06:03:11;101226.44;;;-14.06;66.10
55347;BME280;41218;55.700;38.270;2023-01-08T06:08:11;101228.75;;;-14.03;66.80
55347;BME280;41218;55.700;38.270;2023-01-08T06:13:12;101187.00;;;-14.25;66.28
55347;BME280;41218;55.700;38.270;2023-01-08T06:18:12;101229.41;;;-14.01;66.39
55347;BME280;41218;55.700;38.270;2023-01-08T06:23:13;101223.09;;;-14.00;66.77
55347;BME280;41218;55.700;38.270;2023-01-08T06:28:13;101236.88;;;-13.96;66.61
55347;BME280;41218;55.700;38.270;2023-01-08T06:33:14;101231.56;;;-13.96;66.30
55347;BME280;41218;55.700;38.270;2023-01-08T06:38:15;101239.34;;;-13.86;66.64
55347;BME280;41218;55.700;38.270;2023-01-08T06:43:18;101227.53;;;-13.84;66.30
55347;BME280;41218;55.700;38.270;2023-01-08T06:48:21;101232.81;;;-13.76;66.82
55347;BME280;41218;55.700;38.270;2023-01-08T06:53:21;101224.47;;;-13.73;66.56
55347;BME280;41218;55.700;38.270;2023-01-08T06:58:23;101232.75;;;-13.67;66.52
55347;BME280;41218;55.700;38.270;2023-01-08T07:03:25;101228.91;;;-13.65;66.55
55347;BME280;41218;55.700;38.270;2023-01-08T07:08:26;101241.50;;;-13.59;67.02
55347;BME280;41218;55.700;38.270;2023-01-08T07:13:26;101252.63;;;-13.55;66.64
55347;BME280;41218;55.700;38.270;2023-01-08T07:18:27;101252.31;;;-13.52;66.82
55347;BME280;41218;55.700;38.270;2023-01-08T07:23:27;101243.31;;;-13.51;66.57
55347;BME280;41218;55.700;38.270;2023-01-08T07:28:28;101237.81;;;-13.49;66.82
55347;BME280;41218;55.700;38.270;2023-01-08T07:33:29;101257.75;;;-13.45;67.03
55347;BME280;41218;55.700;38.270;2023-01-08T07:38:29;101251.41;;;-13.44;66.76
55347;BME280;41218;55.700;38.270;2023-01-08T07:43:30;101265.19;;;-13.41;67.30
55347;BME280;41218;55.700;38.270;2023-01-08T07:48:31;101267.03;;;-13.41;66.94
55347;BME280;41218;55.700;38.270;2023-01-08T07:53:32;101267.16;;;-13.35;66.72
55347;BME280;41218;55.700;38.270;2023-01-08T07:58:33;101269.81;;;-13.35;67.11
55347;BME280;41218;55.700;38.270;2023-01-08T08:03:33;101273.59;;;-13.29;66.77
55347;BME280;41218;55.700;38.270;2023-01-08T08:08:34;101283.03;;;-13.26;67.38
55347;BME280;41218;55.700;38.270;2023-01-08T08:13:35;101285.81;;;-13.20;67.40
55347;BME280;41218;55.700;38.270;2023-01-08T08:18:36;101271.34;;;-13.17;67.26
55347;BME280;41218;55.700;38.270;2023-01-08T08:23:36;101257.50;;;-13.13;66.96
55347;BME280;41218;55.700;38.270;2023-01-08T08:28:37;101267.53;;;-13.00;67.06
55347;BME280;41218;55.700;38.270;2023-01-08T08:33:37;101269.31;;;-12.92;67.29
55347;BME280;41218;55.700;38.270;2023-01-08T08:38:38;101268.59;;;-12.86;67.09
55347;BME280;41218;55.700;38.270;2023-01-08T08:43:39;101278.38;;;-12.78;67.05
55347;BME280;41218;55.700;38.270;2023-01-08T08:48:39;101273.88;;;-12.78;67.19
55347;BME280;41218;55.700;38.270;2023-01-08T08:53:40;101264.25;;;-12.79;66.88
55347;BME280;41218;55.700;38.270;2023-01-08T08:58:40;101262.03;;;-12.75;67.10
55347;BME280;41218;55.700;38.270;2023-01-08T09:03:41;101254.69;;;-12.73;67.09
55347;BME280;41218;55.700;38.270;2023-01-08T09:08:41;101261.97;;;-12.67;67.29
55347;BME280;41218;55.700;38.270;2023-01-08T09:13:42;101251.97;;;-12.65;66.83
55347;BME280;41218;55.700;38.270;2023-01-08T09:18:43;101262.81;;;-12.52;67.16
55347;BME280;41218;55.700;38.270;2023-01-08T09:23:47;101261.53;;;-12.41;67.50
55347;BME280;41218;55.700;38.270;2023-01-08T09:28:47;101258.34;;;-12.36;66.65
55347;BME280;41218;55.700;38.270;2023-01-08T09:33:48;101237.94;;;-12.44;66.64
55347;BME280;41218;55.700;38.270;2023-01-08T09:38:49;101244.31;;;-12.30;66.87
55347;BME280;41218;55.700;38.270;2023-01-08T09:43:51;101241.63;;;-12.30;66.72
55347;BME280;41218;55.700;38.270;2023-01-08T09:48:57;101253.69;;;-12.19;66.52
55347;BME280;41218;55.700;38.270;2023-01-08T09:53:58;101263.34;;;-12.18;66.62
55347;BME280;41218;55.700;38.270;2023-01-08T09:59:01;101266.81;;;-12.18;66.22
55347;BME280;41218;55.700;38.270;2023-01-08T10:09:11;101272.16;;;-12.18;66.73
55347;BME280;41218;55.700;38.270;2023-01-08T10:14:41;101260.75;;;-12.12;66.68
55347;BME280;41218;55.700;38.270;2023-01-08T10:19:47;101256.44;;;-12.13;66.28
55347;BME280;41218;55.700;38.270;2023-01-08T10:24:48;101264.72;;;-12.07;66.64
55347;BME280;41218;55.700;38.270;2023-01-08T10:29:50;101260.84;;;-12.05;66.10
55347;BME280;41218;55.700;38.270;2023-01-08T10:34:54;101265.28;;;-12.12;66.34
55347;BME280;41218;55.700;38.270;2023-01-08T10:40:02;101280.72;;;-12.07;66.32
55347;BME280;41218;55.700;38.270;2023-01-08T10:45:17;101280.25;;;-12.11;66.44
55347;BME280;41218;55.700;38.270;2023-01-08T10:50:28;101275.56;;;-12.09;66.70
55347;BME280;41218;55.700;38.270;2023-01-08T10:55:34;101271.69;;;-12.06;66.36
55347;BME280;41218;55.700;38.270;2023-01-08T11:00:38;101269.97;;;-12.14;66.55
55347;BME280;41218;55.700;38.270;2023-01-08T11:05:39;101278.50;;;-12.04;66.35
55347;BME280;41218;55.700;38.270;2023-01-08T11:10:42;101268.03;;;-12.05;66.32
55347;BME280;41218;55.700;38.270;2023-01-08T11:16:03;101265.34;;;-12.05;65.75
55347;BME280;41218;55.700;38.270;2023-01-08T11:21:15;101265.63;;;-12.00;66.41
55347;BME280;41218;55.700;38.270;2023-01-08T11:26:20;101256.34;;;-12.04;65.85
55347;BME280;41218;55.700;38.270;2023-01-08T11:31:27;101269.03;;;-12.06;66.25
55347;BME280;41218;55.700;38.270;2023-01-08T11:36:35;101275.00;;;-12.04;65.97
55347;BME280;41218;55.700;38.270;2023-01-08T11:41:57;101258.75;;;-12.10;66.38
55347;BME280;41218;55.700;38.270;2023-01-08T11:47:13;101266.19;;;-12.05;66.18
55347;BME280;41218;55.700;38.270;2023-01-08T11:52:40;101267.22;;;-12.06;66.15
55347;BME280;41218;55.700;38.270;2023-01-08T12:03:00;101273.72;;;-12.08;66.17
55347;BME280;41218;55.700;38.270;2023-01-08T12:34:44;101296.66;;;-12.37;65.99
55347;BME280;41218;55.700;38.270;2023-01-08T12:39:55;101287.75;;;-12.44;66.12
55347;BME280;41218;55.700;38.270;2023-01-08T12:45:02;101293.31;;;-12.54;66.19
55347;BME280;41218;55.700;38.270;2023-01-08T12:50:20;101275.63;;;-12.70;65.85
55347;BME280;41218;55.700;38.270;2023-01-08T12:55:33;101294.63;;;-12.73;66.04
55347;BME280;41218;55.700;38.270;2023-01-08T13:06:12;101292.63;;;-12.94;66.19
55347;BME280;41218;55.700;38.270;2023-01-08T13:11:25;101304.69;;;-13.06;65.72
55347;BME280;41218;55.700;38.270;2023-01-08T13:16:27;101304.91;;;-13.16;66.03
55347;BME280;41218;55.700;38.270;2023-01-08T13:21:42;101305.69;;;-13.31;65.67
55347;BME280;41218;55.700;38.270;2023-01-08T13:26:49;101299.13;;;-13.43;65.69
55347;BME280;41218;55.700;38.270;2023-01-08T13:31:50;101312.13;;;-13.48;65.99
55347;BME280;41218;55.700;38.270;2023-01-08T13:36:55;101305.38;;;-13.67;65.60
55347;BME280;41218;55.700;38.270;2023-01-08T13:42:01;101311.03;;;-13.70;65.70
55347;BME280;41218;55.700;38.270;2023-01-08T13:47:05;101308.91;;;-13.83;66.11
55347;BME280;41218;55.700;38.270;2023-01-08T13:57:39;101313.13;;;-14.05;65.95
55347;BME280;41218;55.700;38.270;2023-01-08T14:02:43;101314.16;;;-14.14;65.61
55347;BME280;41218;55.700;38.270;2023-01-08T14:07:49;101317.16;;;-14.25;65.84
55347;BME280;41218;55.700;38.270;2023-01-08T14:13:04;101328.66;;;-14.33;65.61
55347;BME280;41218;55.700;38.270;2023-01-08T14:18:05;101333.31;;;-14.43;66.09
55347;BME280;41218;55.700;38.270;2023-01-08T14:23:12;101322.53;;;-14.58;66.15
55347;BME280;41218;55.700;38.270;2023-01-08T14:28:18;101339.47;;;-14.59;66.29
55347;BME280;41218;55.700;38.270;2023-01-08T14:33:23;101339.78;;;-14.70;65.82
55347;BME280;41218;55.700;38.270;2023-01-08T14:38:26;101345.91;;;-14.78;66.05
55347;BME280;41218;55.700;38.270;2023-01-08T14:43:26;101352.22;;;-14.87;65.97
55347;BME280;41218;55.700;38.270;2023-01-08T14:48:35;101342.72;;;-14.98;65.78
55347;BME280;41218;55.700;38.270;2023-01-08T14:53:44;101325.66;;;-15.12;65.90
55347;BME280;41218;55.700;38.270;2023-01-08T14:58:46;101353.66;;;-15.09;65.64
55347;BME280;41218;55.700;38.270;2023-01-08T15:03:48;101364.09;;;-15.16;65.89
55347;BME280;41218;55.700;38.270;2023-01-08T15:08:49;101362.25;;;-15.24;65.81
55347;BME280;41218;55.700;38.270;2023-01-08T15:13:50;101358.25;;;-15.28;66.14
55347;BME280;41218;55.700;38.270;2023-01-08T15:29:30;101361.16;;;-15.47;66.31
55347;BME280;41218;55.700;38.270;2023-01-08T15:34:36;101364.94;;;-15.58;66.24
55347;BME280;41218;55.700;38.270;2023-01-08T15:39:37;101369.38;;;-15.67;65.97
55347;BME280;41218;55.700;38.270;2023-01-08T15:44:37;101381.09;;;-15.69;66.17
55347;BME280;41218;55.700;38.270;2023-01-08T15:49:38;101378.97;;;-15.74;66.45
55347;BME280;41218;55.700;38.270;2023-01-08T15:54:38;101364.47;;;-15.88;66.23
55347;BME280;41218;55.700;38.270;2023-01-08T15:59:39;101369.78;;;-15.88;66.15
55347;BME280;41218;55.700;38.270;2023-01-08T16:04:40;101378.88;;;-15.90;66.08
55347;BME280;41218;55.700;38.270;2023-01-08T16:09:40;101380.19;;;-15.95;66.25
55347;BME280;41218;55.700;38.270;2023-01-08T16:14:41;101382.16;;;-15.97;66.22
55347;BME280;41218;55.700;38.270;2023-01-08T16:19:42;101381.63;;;-16.00;66.10
55347;BME280;41218;55.700;38.270;2023-01-08T16:24:43;101380.28;;;-16.04;65.97
55347;BME280;41218;55.700;38.270;2023-01-08T16:29:44;101375.75;;;-16.12;66.52
55347;BME280;41218;55.700;38.270;2023-01-08T16:34:45;101371.44;;;-16.13;66.63
55347;BME280;41218;55.700;38.270;2023-01-08T16:39:46;101373.28;;;-16.13;66.14
55347;BME280;41218;55.700;38.270;2023-01-08T16:44:47;101376.50;;;-16.20;65.91
55347;BME280;41218;55.700;38.270;2023-01-08T16:49:48;101379.78;;;-16.26;66.41
55347;BME280;41218;55.700;38.270;2023-01-08T16:54:50;101384.41;;;-16.28;66.47
55347;BME280;41218;55.700;38.270;2023-01-08T16:59:51;101367.63;;;-16.37;66.59
55347;BME280;41218;55.700;38.270;2023-01-08T17:04:52;101370.28;;;-16.37;65.78
55347;BME280;41218;55.700;38.270;2023-01-08T17:09:53;101380.34;;;-16.40;66.32
55347;BME280;41218;55.700;38.270;2023-01-08T17:14:54;101383.97;;;-16.41;66.13
55347;BME280;41218;55.700;38.270;2023-01-08T17:19:55;101382.91;;;-16.48;66.06
55347;BME280;41218;55.700;38.270;2023-01-08T17:24:57;101382.25;;;-16.50;66.31
55347;BME280;41218;55.700;38.270;2023-01-08T17:29:58;101381.75;;;-16.54;66.47
55347;BME280;41218;55.700;38.270;2023-01-08T17:34:58;101363.16;;;-16.62;65.64
55347;BME280;41218;55.700;38.270;2023-01-08T17:40:01;101382.63;;;-16.63;65.95
55347;BME280;41218;55.700;38.270;2023-01-08T17:45:02;101358.31;;;-16.85;66.06
55347;BME280;41218;55.700;38.270;2023-01-08T17:50:05;101369.78;;;-16.76;66.15
55347;BME280;41218;55.700;38.270;2023-01-08T17:55:06;101369.75;;;-16.84;65.88
55347;BME280;41218;55.700;38.270;2023-01-08T18:00:08;101347.75;;;-17.03;66.06
55347;BME280;41218;55.700;38.270;2023-01-08T18:05:09;101376.63;;;-16.91;65.97
55347;BME280;41218;55.700;38.270;2023-01-08T18:10:10;101386.50;;;-16.93;66.08
55347;BME280;41218;55.700;38.270;2023-01-08T18:15:12;101393.09;;;-16.98;66.53
55347;BME280;41218;55.700;38.270;2023-01-08T18:20:14;101385.22;;;-17.07;65.82
55347;BME280;41218;55.700;38.270;2023-01-08T18:25:15;101397.19;;;-17.13;65.83
55347;BME280;41218;55.700;38.270;2023-01-08T18:30:16;101387.66;;;-17.24;66.14
55347;BME280;41218;55.700;38.270;2023-01-08T18:35:17;101402.56;;;-17.23;66.40
55347;BME280;41218;55.700;38.270;2023-01-08T18:40:18;101407.31;;;-17.26;66.22
55347;BME280;41218;55.700;38.270;2023-01-08T18:45:19;101417.19;;;-17.28;66.33
55347;BME280;41218;55.700;38.270;2023-01-08T18:50:20;101420.44;;;-17.34;66.34
55347;BME280;41218;55.700;38.270;2023-01-08T18:55:21;101428.50;;;-17.36;66.04
55347;BME280;41218;55.700;38.270;2023-01-08T19:00:22;101421.16;;;-17.42;66.04
55347;BME280;41218;55.700;38.270;2023-01-08T19:05:25;101430.91;;;-17.43;66.31
55347;BME280;41218;55.700;38.270;2023-01-08T19:10:25;101436.03;;;-17.41;65.96
55347;BME280;41218;55.700;38.270;2023-01-08T19:15:26;101424.94;;;-17.45;66.56
55347;BME280;41218;55.700;38.270;2023-01-08T19:20:26;101428.00;;;-17.49;66.02
55347;BME280;41218;55.700;38.270;2023-01-08T19:25:27;101445.78;;;-17.51;66.46
55347;BME280;41218;55.700;38.270;2023-01-08T19:30:28;101435.97;;;-17.59;65.99
55347;BME280;41218;55.700;38.270;2023-01-08T19:35:29;101445.00;;;-17.62;66.23
55347;BME280;41218;55.700;38.270;2023-01-08T19:40:30;101451.41;;;-17.64;66.72
55347;BME280;41218;55.700;38.270;2023-01-08T19:45:33;101444.38;;;-17.73;66.12
55347;BME280;41218;55.700;38.270;2023-01-08T19:50:37;101462.84;;;-17.73;66.48
55347;BME280;41218;55.700;38.270;2023-01-08T19:55:38;101474.81;;;-17.79;66.30
55347;BME280;41218;55.700;38.270;2023-01-08T20:00:38;101480.56;;;-17.84;66.44
55347;BME280;41218;55.700;38.270;2023-01-08T20:05:40;101488.88;;;-17.88;66.06
55347;BME280;41218;55.700;38.270;2023-01-08T20:10:41;101479.44;;;-18.01;65.75
55347;BME280;41218;55.700;38.270;2023-01-08T20:15:41;101479.19;;;-18.07;66.00
55347;BME280;41218;55.700;38.270;2023-01-08T20:20:42;101491.56;;;-18.08;65.82
55347;BME280;41218;55.700;38.270;2023-01-08T20:25:43;101476.97;;;-18.12;65.95
55347;BME280;41218;55.700;38.270;2023-01-08T20:30:44;101479.06;;;-18.15;66.26
55347;BME280;41218;55.700;38.270;2023-01-08T20:35:44;101493.22;;;-18.17;66.44
55347;BME280;41218;55.700;38.270;2023-01-08T20:40:45;101501.44;;;-18.20;66.15
55347;BME280;41218;55.700;38.270;2023-01-08T20:45:45;101509.22;;;-18.18;66.58
55347;BME280;41218;55.700;38.270;2023-01-08T20:50:56;101508.53;;;-18.20;66.12
55347;BME280;41218;55.700;38.270;2023-01-08T20:56:01;101495.16;;;-18.19;65.99
55347;BME280;41218;55.700;38.270;2023-01-08T21:01:15;101494.34;;;-18.19;66.28
55347;BME280;41218;55.700;38.270;2023-01-08T21:06:19;101481.13;;;-18.19;65.79
55347;BME280;41218;55.700;38.270;2023-01-08T21:11:20;101486.00;;;-18.14;66.53
55347;BME280;41218;55.700;38.270;2023-01-08T21:16:24;101481.97;;;-18.19;66.35
55347;BME280;41218;55.700;38.270;2023-01-08T21:21:28;101477.53;;;-18.28;65.96
55347;BME280;41218;55.700;38.270;2023-01-08T21:26:32;101497.81;;;-18.19;66.51
55347;BME280;41218;55.700;38.270;2023-01-08T21:31:33;101504.19;;;-18.21;66.04
55347;BME280;41218;55.700;38.270;2023-01-08T21:36:35;101520.59;;;-18.27;66.25
55347;BME280;41218;55.700;38.270;2023-01-08T21:41:36;101504.88;;;-18.29;65.86
55347;BME280;41218;55.700;38.270;2023-01-08T21:46:57;101511.28;;;-18.31;66.19
55347;BME280;41218;55.700;38.270;2023-01-08T21:51:58;101526.84;;;-18.38;66.12
55347;BME280;41218;55.700;38.270;2023-01-08T21:57:17;101532.25;;;-18.40;66.18
55347;BME280;41218;55.700;38.270;2023-01-08T22:02:20;101529.16;;;-18.45;66.10
55347;BME280;41218;55.700;38.270;2023-01-08T22:07:23;101524.44;;;-18.51;65.64
55347;BME280;41218;55.700;38.270;2023-01-08T22:12:23;101525.69;;;-18.55;65.56
55347;BME280;41218;55.700;38.270;2023-01-08T22:17:27;101526.94;;;-18.59;65.71
55347;BME280;41218;55.700;38.270;2023-01-08T22:22:28;101523.06;;;-18.65;65.50
55347;BME280;41218;55.700;38.270;2023-01-08T22:27:29;101534.44;;;-18.64;66.02
55347;BME280;41218;55.700;38.270;2023-01-08T22:32:30;101529.03;;;-18.63;66.18
55347;BME280;41218;55.700;38.270;2023-01-08T22:37:31;101532.38;;;-18.61;65.87
55347;BME280;41218;55.700;38.270;2023-01-08T22:42:31;101542.38;;;-18.54;65.78
55347;BME280;41218;55.700;38.270;2023-01-08T22:47:32;101547.34;;;-18.51;66.44
55347;BME280;41218;55.700;38.270;2023-01-08T22:52:32;101550.16;;;-18.43;65.96
55347;BME280;41218;55.700;38.270;2023-01-08T22:57:33;101554.88;;;-18.37;66.08
55347;BME280;41218;55.700;38.270;2023-01-08T23:02:34;101557.38;;;-18.35;65.96
55347;BME280;41218;55.700;38.270;2023-01-08T23:07:35;101562.13;;;-18.29;66.14
55347;BME280;41218;55.700;38.270;2023-01-08T23:12:35;101554.91;;;-18.27;65.82
55347;BME280;41218;55.700;38.270;2023-01-08T23:17:36;101551.69;;;-18.31;66.00
55347;BME280;41218;55.700;38.270;2023-01-08T23:22:37;101553.09;;;-18.27;65.82
55347;BME280;41218;55.700;38.270;2023-01-08T23:27:37;101550.31;;;-18.25;65.96
55347;BME280;41218;55.700;38.270;2023-01-08T23:32:38;101565.88;;;-18.12;65.96
55347;BME280;41218;55.700;38.270;2023-01-08T23:37:39;101571.84;;;-18.10;65.82
55347;BME280;41218;55.700;38.270;2023-01-08T23:42:40;101568.81;;;-18.06;65.95
55347;BME280;41218;55.700;38.270;2023-01-08T23:47:41;101568.66;;;-18.04;65.83
55347;BME280;41218;55.700;38.270;2023-01-08T23:52:41;101563.25;;;-18.03;65.83
55347;BME280;41218;55.700;38.270;2023-01-08T23:57:42;101562.41;;;-18.03;65.52
